Terminal Aerodrome Forecast
Issued by NWS Boston, MA

Home | Current Version | Previous Version | Text Only | Print | Product List | Glossary On
Versions: 1 2 3 4 5 6 7 8 9 10 11 12 13 14 15 16 17 18 19 20 21 22
000
FTUS41 KBOX 220543
TAFBOS
TAF
KBOS 220543Z 2206/2312 18004KT P6SM SCT150 BKN250
     FM221000 00000KT P6SM VCSH OVC025
     FM221300 00000KT P6SM VCSH SCT005 OVC015
     FM222200 08006KT 4SM -RA BR OVC005
     FM230100 08006KT 4SM BR VCSH OVC008
     FM230600 12005KT 5SM BR VCSH OVC003
     FM230900 15008KT 3SM -RA OVC003 WS020/20040KT=

USA.gov is the U.S. government's official web portal to all federal, state and local government web resources and services.